createdAt,value
2018-04-16T00:00:15.299Z,12.10
2018-04-16T00:02:42.742Z,12.20
2018-04-16T00:05:10.209Z,12.20
2018-04-16T00:07:37.658Z,12.20
2018-04-16T00:10:05.094Z,12.00
2018-04-16T00:12:33.317Z,11.60
2018-04-16T00:15:00.762Z,11.60
2018-04-16T00:17:28.211Z,11.60
2018-04-16T00:19:56.926Z,11.70
2018-04-16T00:22:24.369Z,11.80
2018-04-16T00:24:51.833Z,11.90
2018-04-16T00:27:19.603Z,12.10
2018-04-16T00:29:47.042Z,12.20
2018-04-16T00:32:20.283Z,12.10
2018-04-16T00:34:53.438Z,12.00
2018-04-16T00:37:26.526Z,11.90
2018-04-16T00:39:59.825Z,11.90
2018-04-16T00:42:33.039Z,12.00
2018-04-16T00:45:06.733Z,12.00
2018-04-16T00:47:39.874Z,12.10
2018-04-16T00:50:12.975Z,12.10
2018-04-16T00:52:46.181Z,12.00
2018-04-16T00:55:19.380Z,12.00
2018-04-16T00:57:52.513Z,11.90
2018-04-16T01:00:26.570Z,12.00
2018-04-16T01:02:59.833Z,12.00
2018-04-16T01:05:33.074Z,11.90
2018-04-16T01:08:06.086Z,11.90
2018-04-16T01:10:39.586Z,11.80
2018-04-16T01:13:12.721Z,11.80
2018-04-16T01:15:45.938Z,11.80
2018-04-16T01:18:19.002Z,11.80
2018-04-16T01:20:52.830Z,11.90
2018-04-16T01:23:26.062Z,11.90
2018-04-16T01:25:59.889Z,12.10
2018-04-16T01:28:32.969Z,12.10
2018-04-16T01:31:06.978Z,12.10
2018-04-16T01:33:40.809Z,12.10
2018-04-16T01:36:13.898Z,12.10
2018-04-16T01:38:46.987Z,12.10
2018-04-16T01:41:30.219Z,12.10
2018-04-16T01:44:03.242Z,12.10
2018-04-16T01:46:37.173Z,11.80
2018-04-16T01:49:11.062Z,11.80
2018-04-16T01:51:44.138Z,11.70
2018-04-16T01:54:17.346Z,11.70
2018-04-16T01:56:50.550Z,11.60
2018-04-16T01:59:23.786Z,11.40
2018-04-16T02:01:57.014Z,11.20
2018-04-16T02:04:41.242Z,11.20
2018-04-16T02:07:14.350Z,11.20
2018-04-16T02:09:47.395Z,11.20
2018-04-16T02:12:20.650Z,11.10
2018-04-16T02:14:54.021Z,11.10
2018-04-16T02:17:27.210Z,11.00
2018-04-16T02:20:00.609Z,10.80
2018-04-16T02:22:33.753Z,10.70
2018-04-16T02:25:06.946Z,10.70
2018-04-16T02:27:40.161Z,10.70
2018-04-16T02:30:13.275Z,10.70
2018-04-16T02:32:46.458Z,10.70
2018-04-16T02:35:19.737Z,10.50
2018-04-16T02:37:52.823Z,10.40
2018-04-16T02:40:25.942Z,10.30
2018-04-16T02:42:59.153Z,10.30
2018-04-16T02:45:32.430Z,10.30
2018-04-16T02:48:05.637Z,10.20
2018-04-16T02:50:38.931Z,10.20
2018-04-16T02:53:11.998Z,10.40
2018-04-16T02:55:45.178Z,10.40
2018-04-16T02:58:18.247Z,10.50
2018-04-16T03:00:51.261Z,10.50
2018-04-16T03:03:24.442Z,10.40
2018-04-16T03:05:57.650Z,10.40
2018-04-16T03:08:30.931Z,10.30
2018-04-16T03:11:04.658Z,10.30
2018-04-16T03:13:38.227Z,10.30
2018-04-16T03:16:11.245Z,10.20
2018-04-16T03:18:44.383Z,10.10
2018-04-16T03:21:17.483Z,10.00
2018-04-16T03:23:50.666Z,10.00
2018-04-16T03:26:23.838Z,9.90
2018-04-16T03:28:57.882Z,9.90
2018-04-16T03:31:30.958Z,9.90
2018-04-16T03:34:04.142Z,9.80
2018-04-16T03:36:37.202Z,9.90
2018-04-16T03:39:10.442Z,9.90
2018-04-16T03:41:50.511Z,9.80
2018-04-16T03:44:24.193Z,9.90
2018-04-16T03:46:57.410Z,10.00
2018-04-16T03:49:30.669Z,10.00
2018-04-16T03:52:13.671Z,10.00
2018-04-16T03:54:41.874Z,9.80
2018-04-16T03:57:09.322Z,9.80
2018-04-16T03:59:37.663Z,9.90
2018-04-16T04:02:04.999Z,10.00
2018-04-16T04:04:32.453Z,10.10
2018-04-16T04:07:00.309Z,10.20
2018-04-16T04:09:27.754Z,10.00
2018-04-16T04:11:55.199Z,9.90
2018-04-16T04:14:22.645Z,9.90
2018-04-16T04:16:50.123Z,9.90
2018-04-16T04:19:17.573Z,9.90
2018-04-16T04:21:45.078Z,9.90
2018-04-16T04:26:59.089Z,10.00
2018-04-16T04:29:38.529Z,10.00
2018-04-16T04:32:05.974Z,10.00
2018-04-16T04:34:33.437Z,9.90
2018-04-16T04:37:01.725Z,9.90
2018-04-16T04:39:29.198Z,9.80
2018-04-16T04:41:56.654Z,9.80
2018-04-16T04:44:24.092Z,9.70
2018-04-16T04:46:51.530Z,9.80
2018-04-16T04:49:19.005Z,9.90
2018-04-16T04:51:46.438Z,10.00
2018-04-16T04:54:13.878Z,10.10
2018-04-16T04:56:42.091Z,10.20
2018-04-16T04:59:09.534Z,10.20
2018-04-16T05:01:37.006Z,10.20
2018-04-16T05:04:04.465Z,10.30
2018-04-16T05:06:32.523Z,10.30
2018-04-16T05:09:00.749Z,10.40
2018-04-16T05:11:28.337Z,10.30
2018-04-16T05:13:56.550Z,10.30
2018-04-16T05:16:24.334Z,10.30
2018-04-16T05:18:51.786Z,10.30
2018-04-16T05:21:19.238Z,10.20
2018-04-16T05:23:47.142Z,10.00
2018-04-16T05:26:14.576Z,9.90
2018-04-16T05:28:42.026Z,9.90
2018-04-16T05:31:09.470Z,10.00
2018-04-16T05:33:36.929Z,10.20
2018-04-16T05:36:04.371Z,10.40
2018-04-16T05:38:31.957Z,10.50
2018-04-16T05:40:59.394Z,10.60
2018-04-16T05:43:26.882Z,10.60
2018-04-16T05:45:54.344Z,10.60
2018-04-16T05:48:21.781Z,10.50
2018-04-16T05:50:49.222Z,10.60
2018-04-16T05:53:16.675Z,10.60
2018-04-16T05:55:44.114Z,10.70
2018-04-16T05:58:11.577Z,10.70
2018-04-16T06:00:39.030Z,10.70
2018-04-16T06:03:06.470Z,10.60
2018-04-16T06:05:34.699Z,10.80
2018-04-16T06:08:02.154Z,10.80
2018-04-16T06:10:29.610Z,11.30
2018-04-16T06:12:57.509Z,11.70
2018-04-16T06:15:24.949Z,12.30
2018-04-16T06:17:53.165Z,12.80
2018-04-16T06:20:20.925Z,13.10
2018-04-16T06:22:49.138Z,13.90
2018-04-16T06:25:16.582Z,13.80
2018-04-16T06:27:44.042Z,14.20
2018-04-16T06:30:11.487Z,14.50
2018-04-16T06:32:38.926Z,15.10
2018-04-16T06:35:07.142Z,16.00
2018-04-16T06:37:34.587Z,16.00
2018-04-16T06:40:02.042Z,16.60
2018-04-16T06:42:29.481Z,17.10
2018-04-16T06:44:56.968Z,17.70
2018-04-16T06:47:24.413Z,18.00
2018-04-16T06:49:51.857Z,17.90
2018-04-16T06:52:19.313Z,17.80
2018-04-16T06:54:46.760Z,18.00
2018-04-16T06:57:14.206Z,18.90
2018-04-16T06:59:42.448Z,20.70
2018-04-16T07:02:09.906Z,20.60
2018-04-16T07:04:37.356Z,21.10
2018-04-16T07:07:04.826Z,21.80
2018-04-16T07:09:32.265Z,22.40
2018-04-16T07:11:59.720Z,23.00
2018-04-16T07:14:27.539Z,23.50
2018-04-16T07:16:54.982Z,24.10
2018-04-16T07:19:23.194Z,24.70
2018-04-16T07:21:50.660Z,24.70
2018-04-16T07:24:18.142Z,25.00
2018-04-16T07:26:45.876Z,25.50
2018-04-16T07:29:13.310Z,25.80
2018-04-16T07:31:40.768Z,26.10
2018-04-16T07:34:08.206Z,26.60
2018-04-16T07:36:36.450Z,26.60
2018-04-16T07:39:03.895Z,26.50
2018-04-16T07:41:31.358Z,26.50
2018-04-16T07:43:58.805Z,26.70
2018-04-16T07:46:26.262Z,26.90
2018-04-16T07:48:53.701Z,27.00
2018-04-16T07:51:21.158Z,27.30
2018-04-16T07:53:48.638Z,27.00
2018-04-16T07:56:16.086Z,27.20
2018-04-16T07:58:43.552Z,27.40
2018-04-16T08:01:10.991Z,27.40
2018-04-16T08:03:38.434Z,27.60
2018-04-16T08:06:05.885Z,27.90
2018-04-16T08:08:33.340Z,28.20
2018-04-16T08:11:00.785Z,28.70
2018-04-16T08:13:29.013Z,29.10
2018-04-16T08:15:56.479Z,29.10
2018-04-16T08:18:23.913Z,29.20
2018-04-16T08:20:51.366Z,29.50
2018-04-16T08:23:18.821Z,29.30
2018-04-16T08:25:46.277Z,29.30
2018-04-16T08:28:13.717Z,29.00
2018-04-16T08:30:41.157Z,28.40
2018-04-16T08:33:09.377Z,28.00
2018-04-16T08:35:36.813Z,28.00
2018-04-16T08:38:04.274Z,27.80
2018-04-16T08:40:31.732Z,28.10
2018-04-16T08:42:59.166Z,28.60
2018-04-16T08:45:26.617Z,29.10
2018-04-16T08:47:54.832Z,30.30
2018-04-16T08:50:23.068Z,30.20
2018-04-16T08:52:51.289Z,30.60
2018-04-16T08:55:18.729Z,30.60
2018-04-16T08:57:46.189Z,30.60
2018-04-16T09:00:13.678Z,30.90
2018-04-16T09:02:41.134Z,31.10
2018-04-16T09:05:08.589Z,31.00
2018-04-16T09:07:36.026Z,30.90
2018-04-16T09:10:03.850Z,30.90
2018-04-16T09:12:32.065Z,30.70
2018-04-16T09:14:59.513Z,30.60
2018-04-16T09:17:27.030Z,30.20
2018-04-16T09:19:54.427Z,30.10
2018-04-16T09:22:21.894Z,30.60
2018-04-16T09:24:49.364Z,31.00
2018-04-16T09:27:16.809Z,31.60
2018-04-16T09:29:44.262Z,32.10
2018-04-16T09:32:11.708Z,31.90
2018-04-16T09:34:39.165Z,31.60
2018-04-16T09:37:06.606Z,32.10
2018-04-16T09:39:34.073Z,32.50
2018-04-16T09:42:01.500Z,32.90
2018-04-16T09:44:29.714Z,33.40
2018-04-16T09:46:57.151Z,33.40
2018-04-16T09:49:24.619Z,32.90
2018-04-16T09:51:52.081Z,32.60
2018-04-16T09:54:19.537Z,32.50
2018-04-16T09:56:46.985Z,32.70
2018-04-16T09:59:14.444Z,31.50
2018-04-16T10:01:41.886Z,31.60
2018-04-16T10:04:09.346Z,32.10
2018-04-16T10:06:36.794Z,31.90
2018-04-16T10:09:05.918Z,31.80
2018-04-16T10:11:33.375Z,31.80
2018-04-16T10:14:00.809Z,32.10
2018-04-16T10:16:28.477Z,31.30
2018-04-16T10:18:55.921Z,30.50
2018-04-16T10:21:24.129Z,30.70
2018-04-16T10:23:51.581Z,30.70
2018-04-16T10:26:19.041Z,31.10
2018-04-16T10:28:46.483Z,30.90
2018-04-16T10:31:13.941Z,30.80
2018-04-16T10:33:41.378Z,31.00
2018-04-16T10:36:09.607Z,31.40
2018-04-16T10:38:37.046Z,31.30
2018-04-16T10:41:04.543Z,31.30
2018-04-16T10:43:31.957Z,31.80
2018-04-16T10:45:59.415Z,31.90
2018-04-16T10:48:26.871Z,32.00
2018-04-16T10:50:54.324Z,32.20
2018-04-16T10:53:21.770Z,31.80
2018-04-16T10:55:49.239Z,30.80
2018-04-16T10:58:16.697Z,30.70
2018-04-16T11:00:44.162Z,31.00
2018-04-16T11:03:11.632Z,30.80
2018-04-16T11:05:39.072Z,30.60
2018-04-16T11:08:06.529Z,30.10
2018-04-16T11:10:33.976Z,30.30
2018-04-16T11:13:01.816Z,29.90
2018-04-16T11:15:29.228Z,29.90
2018-04-16T11:17:56.994Z,29.80
2018-04-16T11:20:24.438Z,29.50
2018-04-16T11:22:51.885Z,29.20
2018-04-16T11:25:19.342Z,29.00
2018-04-16T11:27:46.802Z,29.20
2018-04-16T11:30:14.269Z,29.80
2018-04-16T11:32:41.714Z,30.20
2018-04-16T11:35:09.167Z,29.90
2018-04-16T11:37:36.625Z,29.90
2018-04-16T11:40:04.069Z,29.90
2018-04-16T11:42:31.509Z,29.90
2018-04-16T11:44:59.722Z,30.00
2018-04-16T11:47:27.175Z,30.00
2018-04-16T11:49:54.628Z,30.30
2018-04-16T11:52:22.087Z,29.50
2018-04-16T11:54:49.542Z,29.60
2018-04-16T11:57:16.984Z,29.80
2018-04-16T11:59:44.430Z,30.00
2018-04-16T12:02:11.913Z,30.50
2018-04-16T12:04:39.942Z,30.50
2018-04-16T12:07:07.374Z,31.00
2018-04-16T12:09:34.829Z,31.30
2018-04-16T12:12:02.283Z,31.50
2018-04-16T12:14:29.742Z,31.60
2018-04-16T12:16:57.177Z,31.00
2018-04-16T12:19:24.629Z,30.70
2018-04-16T12:21:52.088Z,30.60
2018-04-16T12:24:19.538Z,30.50
2018-04-16T12:26:46.981Z,31.00
2018-04-16T12:29:14.429Z,31.40
2018-04-16T12:31:41.894Z,31.40
2018-04-16T12:34:09.649Z,31.30
2018-04-16T12:36:37.129Z,31.50
2018-04-16T12:39:05.451Z,31.10
2018-04-16T12:41:33.639Z,31.00
2018-04-16T12:44:02.704Z,30.90
2018-04-16T12:46:30.193Z,30.90
2018-04-16T12:48:58.395Z,30.80
2018-04-16T12:51:26.613Z,30.60
2018-04-16T12:53:54.877Z,30.60
2018-04-16T12:56:22.331Z,30.80
2018-04-16T12:58:49.782Z,30.30
2018-04-16T13:01:17.233Z,30.10
2018-04-16T13:03:44.688Z,30.40
2018-04-16T13:06:12.143Z,30.30
2018-04-16T13:08:39.620Z,30.00
2018-04-16T13:11:07.086Z,29.30
2018-04-16T13:13:34.533Z,28.70
2018-04-16T13:16:02.244Z,28.20
2018-04-16T13:18:30.467Z,29.10
2018-04-16T13:20:57.906Z,29.00
2018-04-16T13:23:25.353Z,29.00
2018-04-16T13:25:52.813Z,28.80
2018-04-16T13:28:20.722Z,28.90
2018-04-16T13:30:48.175Z,29.30
2018-04-16T13:33:15.610Z,29.30
2018-04-16T13:35:43.061Z,28.10
2018-04-16T13:38:10.512Z,28.30
2018-04-16T13:40:37.980Z,29.30
2018-04-16T13:43:05.447Z,30.50
2018-04-16T13:45:32.883Z,30.40
2018-04-16T13:48:00.337Z,29.90
2018-04-16T13:50:27.782Z,29.80
2018-04-16T13:52:55.223Z,29.10
2018-04-16T13:55:24.217Z,27.70
2018-04-16T13:57:52.421Z,27.00
2018-04-16T14:00:19.874Z,27.00
2018-04-16T14:02:47.365Z,26.10
2018-04-16T14:05:14.820Z,25.40
2018-04-16T14:07:42.348Z,24.90
2018-04-16T14:10:10.508Z,24.90
2018-04-16T14:12:37.951Z,25.20
2018-04-16T14:15:06.186Z,25.10
2018-04-16T14:17:33.631Z,25.10
2018-04-16T14:20:01.082Z,24.80
2018-04-16T14:22:28.534Z,24.60
2018-04-16T14:24:55.980Z,24.40
2018-04-16T14:27:23.415Z,23.90
2018-04-16T14:29:51.646Z,23.40
2018-04-16T14:32:19.100Z,23.40
2018-04-16T14:34:46.554Z,23.90
2018-04-16T14:37:13.995Z,24.40
2018-04-16T14:39:41.757Z,25.10
2018-04-16T14:42:09.198Z,25.40
2018-04-16T14:44:36.647Z,26.40
2018-04-16T14:47:04.566Z,27.20
2018-04-16T14:49:32.011Z,27.40
2018-04-16T14:51:59.458Z,26.60
2018-04-16T14:54:26.944Z,25.70
2018-04-16T14:56:54.392Z,25.20
2018-04-16T14:59:21.842Z,25.20
2018-04-16T15:01:49.290Z,24.90
2018-04-16T15:04:16.742Z,24.40
2018-04-16T15:06:44.204Z,23.80
2018-04-16T15:09:11.648Z,23.60
2018-04-16T15:11:39.102Z,23.50
2018-04-16T15:14:06.544Z,23.40
2018-04-16T15:16:33.997Z,23.90
2018-04-16T15:19:01.435Z,24.00
2018-04-16T15:21:29.654Z,24.80
2018-04-16T15:23:57.102Z,24.80
2018-04-16T15:26:24.566Z,25.40
2018-04-16T15:28:52.017Z,25.90
2018-04-16T15:31:19.474Z,26.80
2018-04-16T15:33:47.378Z,27.60
2018-04-16T15:36:14.827Z,28.10
2018-04-16T15:38:42.293Z,27.80
2018-04-16T15:41:10.258Z,27.00
2018-04-16T15:43:37.716Z,26.30
2018-04-16T15:46:05.158Z,25.60
2018-04-16T15:48:32.607Z,25.10
2018-04-16T15:51:00.072Z,24.60
2018-04-16T15:53:27.509Z,24.20
2018-04-16T15:55:54.960Z,23.70
2018-04-16T15:58:22.406Z,24.30
2018-04-16T16:00:49.982Z,25.00
2018-04-16T16:03:17.419Z,25.70
2018-04-16T16:05:44.858Z,26.10
2018-04-16T16:08:13.082Z,24.90
2018-04-16T16:10:40.529Z,24.80
2018-04-16T16:13:07.983Z,23.80
2018-04-16T16:15:35.444Z,22.70
2018-04-16T16:18:03.526Z,22.40
2018-04-16T16:20:30.975Z,21.90
2018-04-16T16:22:58.425Z,21.80
2018-04-16T16:25:25.861Z,21.70
2018-04-16T16:27:53.326Z,21.70
2018-04-16T16:30:20.781Z,21.90
2018-04-16T16:32:48.233Z,22.10
2018-04-16T16:35:15.673Z,22.30
2018-04-16T16:37:43.886Z,22.10
2018-04-16T16:40:11.352Z,22.10
2018-04-16T16:42:38.799Z,21.90
2018-04-16T16:45:06.251Z,21.70
2018-04-16T16:47:33.725Z,21.60
2018-04-16T16:50:02.737Z,21.50
2018-04-16T16:52:30.171Z,21.20
2018-04-16T16:54:58.178Z,21.00
2018-04-16T16:57:25.633Z,20.80
2018-04-16T16:59:53.066Z,20.50
2018-04-16T17:02:20.546Z,20.50
2018-04-16T17:04:47.979Z,20.40
2018-04-16T17:07:15.438Z,20.40
2018-04-16T17:09:42.881Z,20.20
2018-04-16T17:12:10.325Z,20.20
2018-04-16T17:14:37.791Z,20.10
2018-04-16T17:17:05.226Z,20.00
2018-04-16T17:19:32.698Z,19.80
2018-04-16T17:22:00.146Z,19.70
2018-04-16T17:24:27.598Z,19.60
2018-04-16T17:26:55.058Z,19.40
2018-04-16T17:29:22.501Z,19.20
2018-04-16T17:31:49.958Z,19.10
2018-04-16T17:34:18.161Z,18.80
2018-04-16T17:36:45.958Z,18.70
2018-04-16T17:39:13.401Z,18.60
2018-04-16T17:41:40.861Z,18.40
2018-04-16T17:44:08.315Z,18.20
2018-04-16T17:46:35.774Z,18.00
2018-04-16T17:49:03.222Z,17.70
2018-04-16T17:51:30.663Z,17.60
2018-04-16T17:53:58.118Z,17.50
2018-04-16T17:56:25.562Z,17.40
2018-04-16T17:58:53.009Z,17.30
2018-04-16T18:01:20.454Z,17.10
2018-04-16T18:03:48.670Z,16.90
2018-04-16T18:06:16.123Z,16.80
2018-04-16T18:08:43.578Z,16.70
2018-04-16T18:11:11.021Z,16.60
2018-04-16T18:13:39.117Z,16.50
2018-04-16T18:16:06.562Z,16.30
2018-04-16T18:18:34.015Z,16.10
2018-04-16T18:21:01.462Z,16.10
2018-04-16T18:23:28.961Z,16.00
2018-04-16T18:25:56.408Z,16.00
2018-04-16T18:28:23.867Z,15.90
2018-04-16T18:30:51.309Z,15.80
2018-04-16T18:33:18.766Z,15.70
2018-04-16T18:35:46.205Z,15.60
2018-04-16T18:38:13.654Z,15.50
2018-04-16T18:40:41.112Z,15.50
2018-04-16T18:43:09.317Z,15.30
2018-04-16T18:45:36.784Z,15.30
2018-04-16T18:48:04.237Z,15.20
2018-04-16T18:50:31.678Z,15.20
2018-04-16T18:52:59.262Z,15.10
2018-04-16T18:55:26.726Z,15.10
2018-04-16T18:57:54.165Z,15.00
2018-04-16T19:00:28.567Z,15.00
2018-04-16T19:02:56.057Z,15.00
2018-04-16T19:05:24.279Z,14.90
2018-04-16T19:07:52.481Z,14.80
2018-04-16T19:10:19.938Z,14.80
2018-04-16T19:12:47.407Z,14.70
2018-04-16T19:15:14.834Z,14.60
2018-04-16T19:17:47.905Z,14.50
2018-04-16T19:20:22.677Z,14.50
2018-04-16T19:22:50.125Z,14.50
2018-04-16T19:25:17.586Z,14.40
2018-04-16T19:27:50.761Z,14.40
2018-04-16T19:30:18.214Z,14.40
2018-04-16T19:32:51.354Z,14.30
2018-04-16T19:35:18.810Z,14.30
2018-04-16T19:37:46.252Z,14.20
2018-04-16T19:40:13.731Z,14.20
2018-04-16T19:42:41.176Z,14.10
2018-04-16T19:45:08.629Z,14.20
2018-04-16T19:47:36.089Z,14.10
2018-04-16T19:50:07.153Z,14.00
2018-04-16T19:52:34.602Z,14.00
2018-04-16T19:55:02.042Z,13.90
2018-04-16T19:57:35.126Z,13.90
2018-04-16T20:00:02.604Z,13.80
2018-04-16T20:02:35.881Z,13.70
2018-04-16T20:05:03.340Z,13.70
2018-04-16T20:07:31.557Z,13.70
2018-04-16T20:09:59.774Z,13.60
2018-04-16T20:12:27.252Z,13.50
2018-04-16T20:14:54.689Z,13.50
2018-04-16T20:17:22.134Z,13.40
2018-04-16T20:19:49.590Z,13.40
2018-04-16T20:22:17.030Z,13.30
2018-04-16T20:24:44.490Z,13.30
2018-04-16T20:27:11.947Z,13.20
2018-04-16T20:29:39.394Z,13.30
2018-04-16T20:32:06.838Z,13.30
2018-04-16T20:34:35.377Z,13.30
2018-04-16T20:37:02.846Z,13.30
2018-04-16T20:39:30.291Z,13.40
2018-04-16T20:41:57.741Z,13.40
2018-04-16T20:44:25.198Z,13.40
2018-04-16T20:46:52.650Z,13.40
2018-04-16T20:49:20.099Z,13.30
2018-04-16T20:51:47.549Z,13.30
2018-04-16T20:54:15.009Z,13.30
2018-04-16T20:56:42.461Z,13.30
2018-04-16T20:59:09.898Z,13.30
2018-04-16T21:01:38.119Z,13.20
2018-04-16T21:04:05.554Z,13.20
2018-04-16T21:06:33.007Z,13.20
2018-04-16T21:09:01.830Z,13.20
2018-04-16T21:11:29.274Z,13.10
2018-04-16T21:13:56.726Z,12.50
2018-04-16T21:16:24.302Z,12.10
2018-04-16T21:18:51.741Z,11.90
2018-04-16T21:21:19.179Z,11.90
2018-04-16T21:23:46.640Z,12.10
2018-04-16T21:26:14.104Z,12.10
2018-04-16T21:28:41.553Z,12.20
2018-04-16T21:31:08.993Z,12.30
2018-04-16T21:33:36.471Z,12.30
2018-04-16T21:36:03.909Z,12.40
2018-04-16T21:38:31.364Z,12.30
2018-04-16T21:40:59.633Z,12.40
2018-04-16T21:43:27.037Z,12.30
2018-04-16T21:45:54.809Z,12.30
2018-04-16T21:48:22.519Z,12.20
2018-04-16T21:50:50.734Z,11.70
2018-04-16T21:53:18.193Z,11.60
2018-04-16T21:55:46.024Z,11.60
2018-04-16T21:58:14.221Z,11.20
2018-04-16T22:00:41.667Z,11.20
2018-04-16T22:03:09.172Z,11.20
2018-04-16T22:05:36.576Z,11.30
2018-04-16T22:08:04.030Z,11.40
2018-04-16T22:10:31.482Z,11.50
2018-04-16T22:12:58.926Z,11.60
2018-04-16T22:15:27.165Z,11.60
2018-04-16T22:17:54.602Z,11.50
2018-04-16T22:20:22.062Z,11.60
2018-04-16T22:22:49.522Z,11.60
2018-04-16T22:25:17.191Z,11.70
2018-04-16T22:27:44.620Z,11.70
2018-04-16T22:30:12.075Z,11.70
2018-04-16T22:32:39.534Z,11.80
2018-04-16T22:35:06.991Z,11.80
2018-04-16T22:37:34.457Z,11.80
2018-04-16T22:40:01.885Z,11.90
2018-04-16T22:42:29.333Z,12.00
2018-04-16T22:44:57.551Z,12.10
2018-04-16T22:47:24.994Z,12.10
2018-04-16T22:49:52.450Z,12.00
2018-04-16T22:52:19.897Z,12.10
2018-04-16T22:54:47.349Z,12.10
2018-04-16T22:57:14.790Z,12.00
2018-04-16T22:59:42.996Z,11.70
2018-04-16T23:02:10.449Z,11.70
2018-04-16T23:24:39.718Z,11.30
2018-04-16T23:27:07.205Z,11.30
2018-04-16T23:29:34.626Z,11.20
2018-04-16T23:32:02.077Z,11.10
2018-04-16T23:34:29.541Z,11.00
2018-04-16T23:36:57.417Z,10.90
2018-04-16T23:39:24.886Z,10.90
2018-04-16T23:41:52.317Z,10.80
2018-04-16T23:44:19.778Z,10.80
2018-04-16T23:46:47.254Z,10.80
2018-04-16T23:49:14.701Z,10.80
2018-04-16T23:51:42.153Z,10.80
2018-04-16T23:54:09.609Z,10.60
2018-04-16T23:56:37.275Z,10.60
2018-04-16T23:59:05.443Z,10.60
